sensor_id;sensor_type;location;lat;lon;timestamp;P1;durP1;ratioP1;P2;durP2;ratioP2
8893;SDS011;4483;48.622;9.230;2023-04-25T00:02:25;1.93;;;1.77;;
8893;SDS011;4483;48.622;9.230;2023-04-25T00:04:53;1.70;;;1.60;;
8893;SDS011;4483;48.622;9.230;2023-04-25T00:07:23;1.53;;;1.43;;
8893;SDS011;4483;48.622;9.230;2023-04-25T00:09:51;2.90;;;1.63;;
8893;SDS011;4483;48.622;9.230;2023-04-25T00:12:18;4.63;;;1.27;;
8893;SDS011;4483;48.622;9.230;2023-04-25T00:14:44;1.37;;;1.37;;
8893;SDS011;4483;48.622;9.230;2023-04-25T00:17:13;1.60;;;1.50;;
8893;SDS011;4483;48.622;9.230;2023-04-25T00:19:40;2.23;;;1.87;;
8893;SDS011;4483;48.622;9.230;2023-04-25T00:22:06;3.10;;;1.67;;
8893;SDS011;4483;48.622;9.230;2023-04-25T00:24:33;3.43;;;1.63;;
8893;SDS011;4483;48.622;9.230;2023-04-25T00:27:00;2.23;;;1.50;;
8893;SDS011;4483;48.622;9.230;2023-04-25T00:29:27;1.60;;;1.50;;
8893;SDS011;4483;48.622;9.230;2023-04-25T00:31:53;1.80;;;1.70;;
8893;SDS011;4483;48.622;9.230;2023-04-25T00:34:21;2.27;;;1.60;;
8893;SDS011;4483;48.622;9.230;2023-04-25T00:36:48;5.90;;;1.67;;
8893;SDS011;4483;48.622;9.230;2023-04-25T00:39:14;1.77;;;1.50;;
8893;SDS011;4483;48.622;9.230;2023-04-25T00:41:41;2.43;;;1.63;;
8893;SDS011;4483;48.622;9.230;2023-04-25T00:44:08;2.93;;;1.60;;
8893;SDS011;4483;48.622;9.230;2023-04-25T00:46:38;1.73;;;1.63;;
8893;SDS011;4483;48.622;9.230;2023-04-25T00:49:05;1.27;;;1.27;;
8893;SDS011;4483;48.622;9.230;2023-04-25T00:51:33;6.97;;;1.50;;
8893;SDS011;4483;48.622;9.230;2023-04-25T00:54:01;1.70;;;1.60;;
8893;SDS011;4483;48.622;9.230;2023-04-25T00:56:28;1.73;;;1.63;;
8893;SDS011;4483;48.622;9.230;2023-04-25T00:58:55;4.10;;;1.60;;
8893;SDS011;4483;48.622;9.230;2023-04-25T01:01:22;1.77;;;1.60;;
8893;SDS011;4483;48.622;9.230;2023-04-25T01:03:49;1.60;;;1.50;;
8893;SDS011;4483;48.622;9.230;2023-04-25T01:06:16;1.57;;;1.40;;
8893;SDS011;4483;48.622;9.230;2023-04-25T01:08:44;2.60;;;1.60;;
8893;SDS011;4483;48.622;9.230;2023-04-25T01:11:11;1.80;;;1.70;;
8893;SDS011;4483;48.622;9.230;2023-04-25T01:13:38;1.50;;;1.40;;
8893;SDS011;4483;48.622;9.230;2023-04-25T01:16:04;1.53;;;1.47;;
8893;SDS011;4483;48.622;9.230;2023-04-25T01:18:31;4.47;;;1.40;;
8893;SDS011;4483;48.622;9.230;2023-04-25T01:21:02;1.73;;;1.47;;
8893;SDS011;4483;48.622;9.230;2023-04-25T01:23:33;3.87;;;1.80;;
8893;SDS011;4483;48.622;9.230;2023-04-25T01:26:00;1.63;;;1.53;;
8893;SDS011;4483;48.622;9.230;2023-04-25T01:28:27;2.23;;;1.70;;
8893;SDS011;4483;48.622;9.230;2023-04-25T01:30:54;1.40;;;1.40;;
8893;SDS011;4483;48.622;9.230;2023-04-25T01:33:22;1.73;;;1.63;;
8893;SDS011;4483;48.622;9.230;2023-04-25T01:35:49;1.70;;;1.50;;
8893;SDS011;4483;48.622;9.230;2023-04-25T01:38:17;1.50;;;1.40;;
8893;SDS011;4483;48.622;9.230;2023-04-25T01:40:44;1.63;;;1.53;;
8893;SDS011;4483;48.622;9.230;2023-04-25T01:43:12;1.40;;;1.30;;
8893;SDS011;4483;48.622;9.230;2023-04-25T01:45:39;1.43;;;1.33;;
8893;SDS011;4483;48.622;9.230;2023-04-25T01:48:06;1.67;;;1.60;;
8893;SDS011;4483;48.622;9.230;2023-04-25T01:50:33;1.60;;;1.50;;
8893;SDS011;4483;48.622;9.230;2023-04-25T01:53:00;2.07;;;1.90;;
8893;SDS011;4483;48.622;9.230;2023-04-25T01:55:28;1.90;;;1.80;;
8893;SDS011;4483;48.622;9.230;2023-04-25T01:57:55;1.97;;;1.87;;
8893;SDS011;4483;48.622;9.230;2023-04-25T02:00:22;1.70;;;1.60;;
8893;SDS011;4483;48.622;9.230;2023-04-25T02:02:49;1.63;;;1.53;;
8893;SDS011;4483;48.622;9.230;2023-04-25T02:05:18;2.10;;;1.53;;
8893;SDS011;4483;48.622;9.230;2023-04-25T02:07:45;1.70;;;1.60;;
8893;SDS011;4483;48.622;9.230;2023-04-25T02:10:12;2.13;;;1.53;;
8893;SDS011;4483;48.622;9.230;2023-04-25T02:12:40;2.13;;;1.40;;
8893;SDS011;4483;48.622;9.230;2023-04-25T02:15:07;2.77;;;1.50;;
8893;SDS011;4483;48.622;9.230;2023-04-25T02:17:34;1.80;;;1.70;;
8893;SDS011;4483;48.622;9.230;2023-04-25T02:20:00;1.47;;;1.40;;
8893;SDS011;4483;48.622;9.230;2023-04-25T02:22:28;1.93;;;1.83;;
8893;SDS011;4483;48.622;9.230;2023-04-25T02:24:55;2.60;;;1.50;;
8893;SDS011;4483;48.622;9.230;2023-04-25T02:27:22;3.03;;;1.80;;
8893;SDS011;4483;48.622;9.230;2023-04-25T02:29:50;2.93;;;1.70;;
8893;SDS011;4483;48.622;9.230;2023-04-25T02:32:17;2.87;;;1.80;;
8893;SDS011;4483;48.622;9.230;2023-04-25T02:34:43;1.47;;;1.37;;
8893;SDS011;4483;48.622;9.230;2023-04-25T02:37:10;2.00;;;1.90;;
8893;SDS011;4483;48.622;9.230;2023-04-25T02:39:36;3.93;;;1.47;;
8893;SDS011;4483;48.622;9.230;2023-04-25T02:42:03;3.03;;;1.57;;
8893;SDS011;4483;48.622;9.230;2023-04-25T02:44:30;3.27;;;1.70;;
8893;SDS011;4483;48.622;9.230;2023-04-25T02:46:58;3.00;;;1.70;;
8893;SDS011;4483;48.622;9.230;2023-04-25T02:49:25;2.17;;;1.97;;
8893;SDS011;4483;48.622;9.230;2023-04-25T02:51:51;3.07;;;2.10;;
8893;SDS011;4483;48.622;9.230;2023-04-25T02:54:18;2.27;;;1.93;;
8893;SDS011;4483;48.622;9.230;2023-04-25T02:56:45;4.50;;;1.73;;
8893;SDS011;4483;48.622;9.230;2023-04-25T02:59:12;3.80;;;1.63;;
8893;SDS011;4483;48.622;9.230;2023-04-25T03:01:38;4.30;;;2.00;;
8893;SDS011;4483;48.622;9.230;2023-04-25T03:04:06;3.57;;;1.70;;
8893;SDS011;4483;48.622;9.230;2023-04-25T03:06:33;2.90;;;1.60;;
8893;SDS011;4483;48.622;9.230;2023-04-25T03:09:00;2.10;;;1.83;;
8893;SDS011;4483;48.622;9.230;2023-04-25T03:11:26;1.73;;;1.60;;
8893;SDS011;4483;48.622;9.230;2023-04-25T03:13:53;3.97;;;2.07;;
8893;SDS011;4483;48.622;9.230;2023-04-25T03:16:20;1.80;;;1.70;;
8893;SDS011;4483;48.622;9.230;2023-04-25T03:18:47;2.23;;;2.00;;
8893;SDS011;4483;48.622;9.230;2023-04-25T03:21:16;2.50;;;1.80;;
8893;SDS011;4483;48.622;9.230;2023-04-25T03:23:43;2.97;;;1.70;;
8893;SDS011;4483;48.622;9.230;2023-04-25T03:26:10;2.30;;;2.10;;
8893;SDS011;4483;48.622;9.230;2023-04-25T03:28:36;1.90;;;1.80;;
8893;SDS011;4483;48.622;9.230;2023-04-25T03:31:04;3.77;;;1.80;;
8893;SDS011;4483;48.622;9.230;2023-04-25T03:33:31;1.93;;;1.77;;
8893;SDS011;4483;48.622;9.230;2023-04-25T03:35:58;4.63;;;2.30;;
8893;SDS011;4483;48.622;9.230;2023-04-25T03:38:26;2.47;;;2.23;;
8893;SDS011;4483;48.622;9.230;2023-04-25T03:40:53;4.83;;;2.13;;
8893;SDS011;4483;48.622;9.230;2023-04-25T03:43:21;2.07;;;1.97;;
8893;SDS011;4483;48.622;9.230;2023-04-25T03:45:47;5.00;;;2.07;;
8893;SDS011;4483;48.622;9.230;2023-04-25T03:48:14;3.70;;;2.13;;
8893;SDS011;4483;48.622;9.230;2023-04-25T03:50:41;2.30;;;2.03;;
8893;SDS011;4483;48.622;9.230;2023-04-25T03:53:07;2.30;;;2.20;;
8893;SDS011;4483;48.622;9.230;2023-04-25T03:55:35;2.00;;;1.90;;
8893;SDS011;4483;48.622;9.230;2023-04-25T03:58:02;3.00;;;2.27;;
8893;SDS011;4483;48.622;9.230;2023-04-25T04:00:29;2.13;;;2.03;;
8893;SDS011;4483;48.622;9.230;2023-04-25T04:02:55;1.93;;;1.83;;
8893;SDS011;4483;48.622;9.230;2023-04-25T04:05:22;2.53;;;1.90;;
8893;SDS011;4483;48.622;9.230;2023-04-25T04:07:49;1.80;;;1.70;;
8893;SDS011;4483;48.622;9.230;2023-04-25T04:10:15;1.83;;;1.73;;
8893;SDS011;4483;48.622;9.230;2023-04-25T04:12:43;2.27;;;2.03;;
8893;SDS011;4483;48.622;9.230;2023-04-25T04:15:10;1.90;;;1.80;;
8893;SDS011;4483;48.622;9.230;2023-04-25T04:17:37;1.97;;;1.70;;
8893;SDS011;4483;48.622;9.230;2023-04-25T04:20:04;2.83;;;1.80;;
8893;SDS011;4483;48.622;9.230;2023-04-25T04:22:32;1.90;;;1.80;;
8893;SDS011;4483;48.622;9.230;2023-04-25T04:24:59;6.17;;;2.73;;
8893;SDS011;4483;48.622;9.230;2023-04-25T04:27:27;4.17;;;2.30;;
8893;SDS011;4483;48.622;9.230;2023-04-25T04:29:55;3.23;;;2.50;;
8893;SDS011;4483;48.622;9.230;2023-04-25T04:32:22;3.73;;;1.87;;
8893;SDS011;4483;48.622;9.230;2023-04-25T04:34:50;3.83;;;1.97;;
8893;SDS011;4483;48.622;9.230;2023-04-25T04:37:17;3.93;;;2.00;;
8893;SDS011;4483;48.622;9.230;2023-04-25T04:39:43;2.43;;;2.23;;
8893;SDS011;4483;48.622;9.230;2023-04-25T04:42:10;2.17;;;1.70;;
8893;SDS011;4483;48.622;9.230;2023-04-25T04:44:37;3.43;;;2.00;;
8893;SDS011;4483;48.622;9.230;2023-04-25T04:47:05;2.17;;;2.00;;
8893;SDS011;4483;48.622;9.230;2023-04-25T04:49:32;1.70;;;1.60;;
8893;SDS011;4483;48.622;9.230;2023-04-25T04:52:00;2.97;;;1.70;;
8893;SDS011;4483;48.622;9.230;2023-04-25T04:54:26;2.83;;;1.90;;
8893;SDS011;4483;48.622;9.230;2023-04-25T04:56:53;2.23;;;2.03;;
8893;SDS011;4483;48.622;9.230;2023-04-25T04:59:20;3.07;;;2.33;;
8893;SDS011;4483;48.622;9.230;2023-04-25T05:01:46;2.93;;;2.20;;
8893;SDS011;4483;48.622;9.230;2023-04-25T05:04:14;3.53;;;2.20;;
8893;SDS011;4483;48.622;9.230;2023-04-25T05:06:41;2.53;;;2.30;;
8893;SDS011;4483;48.622;9.230;2023-04-25T05:09:09;2.43;;;2.23;;
8893;SDS011;4483;48.622;9.230;2023-04-25T05:11:35;2.30;;;2.20;;
8893;SDS011;4483;48.622;9.230;2023-04-25T05:14:02;4.03;;;2.30;;
8893;SDS011;4483;48.622;9.230;2023-04-25T05:16:29;4.17;;;2.43;;
8893;SDS011;4483;48.622;9.230;2023-04-25T05:18:55;3.60;;;2.40;;
8893;SDS011;4483;48.622;9.230;2023-04-25T05:21:24;2.70;;;2.30;;
8893;SDS011;4483;48.622;9.230;2023-04-25T05:23:50;2.67;;;2.43;;
8893;SDS011;4483;48.622;9.230;2023-04-25T05:26:17;5.80;;;2.40;;
8893;SDS011;4483;48.622;9.230;2023-04-25T05:28:43;2.30;;;2.10;;
8893;SDS011;4483;48.622;9.230;2023-04-25T05:31:10;3.33;;;2.43;;
8893;SDS011;4483;48.622;9.230;2023-04-25T05:33:37;2.50;;;2.30;;
8893;SDS011;4483;48.622;9.230;2023-04-25T05:36:04;2.50;;;2.23;;
8893;SDS011;4483;48.622;9.230;2023-04-25T05:38:32;2.77;;;2.27;;
8893;SDS011;4483;48.622;9.230;2023-04-25T05:40:59;3.87;;;2.03;;
8893;SDS011;4483;48.622;9.230;2023-04-25T05:43:26;2.90;;;2.20;;
8893;SDS011;4483;48.622;9.230;2023-04-25T05:45:52;3.63;;;2.10;;
8893;SDS011;4483;48.622;9.230;2023-04-25T05:48:19;2.47;;;2.20;;
8893;SDS011;4483;48.622;9.230;2023-04-25T05:50:46;2.43;;;2.17;;
8893;SDS011;4483;48.622;9.230;2023-04-25T05:53:12;3.70;;;2.13;;
8893;SDS011;4483;48.622;9.230;2023-04-25T05:55:40;3.83;;;2.33;;
8893;SDS011;4483;48.622;9.230;2023-04-25T05:58:07;2.93;;;1.90;;
8893;SDS011;4483;48.622;9.230;2023-04-25T06:00:34;2.47;;;2.00;;
8893;SDS011;4483;48.622;9.230;2023-04-25T06:03:00;2.37;;;2.23;;
8893;SDS011;4483;48.622;9.230;2023-04-25T06:05:27;2.83;;;2.00;;
8893;SDS011;4483;48.622;9.230;2023-04-25T06:07:54;2.83;;;2.00;;
8893;SDS011;4483;48.622;9.230;2023-04-25T06:10:21;4.87;;;2.10;;
8893;SDS011;4483;48.622;9.230;2023-04-25T06:12:49;1.97;;;1.83;;
8893;SDS011;4483;48.622;9.230;2023-04-25T06:15:15;4.03;;;2.07;;
8893;SDS011;4483;48.622;9.230;2023-04-25T06:17:42;4.10;;;2.53;;
8893;SDS011;4483;48.622;9.230;2023-04-25T06:20:09;4.17;;;2.10;;
8893;SDS011;4483;48.622;9.230;2023-04-25T06:22:36;2.73;;;2.00;;
8893;SDS011;4483;48.622;9.230;2023-04-25T06:25:03;2.03;;;1.93;;
8893;SDS011;4483;48.622;9.230;2023-04-25T06:27:30;3.20;;;2.20;;
8893;SDS011;4483;48.622;9.230;2023-04-25T06:29:58;2.23;;;2.03;;
8893;SDS011;4483;48.622;9.230;2023-04-25T06:32:24;3.83;;;2.40;;
8893;SDS011;4483;48.622;9.230;2023-04-25T06:34:52;3.30;;;1.83;;
8893;SDS011;4483;48.622;9.230;2023-04-25T06:37:19;4.40;;;2.10;;
8893;SDS011;4483;48.622;9.230;2023-04-25T06:39:45;2.30;;;2.20;;
8893;SDS011;4483;48.622;9.230;2023-04-25T06:42:12;2.87;;;2.30;;
8893;SDS011;4483;48.622;9.230;2023-04-25T06:44:39;2.57;;;2.33;;
8893;SDS011;4483;48.622;9.230;2023-04-25T06:47:07;4.30;;;2.30;;
8893;SDS011;4483;48.622;9.230;2023-04-25T06:49:33;2.33;;;2.03;;
8893;SDS011;4483;48.622;9.230;2023-04-25T06:52:00;4.63;;;2.23;;
8893;SDS011;4483;48.622;9.230;2023-04-25T06:54:27;5.33;;;3.00;;
8893;SDS011;4483;48.622;9.230;2023-04-25T06:56:54;4.00;;;2.60;;
8893;SDS011;4483;48.622;9.230;2023-04-25T06:59:21;3.80;;;3.10;;
8893;SDS011;4483;48.622;9.230;2023-04-25T07:01:48;2.47;;;2.27;;
8893;SDS011;4483;48.622;9.230;2023-04-25T07:04:16;3.40;;;2.77;;
8893;SDS011;4483;48.622;9.230;2023-04-25T07:06:43;2.57;;;2.27;;
8893;SDS011;4483;48.622;9.230;2023-04-25T07:09:10;2.77;;;2.03;;
8893;SDS011;4483;48.622;9.230;2023-04-25T07:11:37;2.13;;;2.00;;
8893;SDS011;4483;48.622;9.230;2023-04-25T07:14:03;3.97;;;2.27;;
8893;SDS011;4483;48.622;9.230;2023-04-25T07:16:30;3.87;;;2.30;;
8893;SDS011;4483;48.622;9.230;2023-04-25T07:18:57;3.07;;;2.60;;
8893;SDS011;4483;48.622;9.230;2023-04-25T07:21:25;4.33;;;2.37;;
8893;SDS011;4483;48.622;9.230;2023-04-25T07:23:52;2.87;;;2.50;;
8893;SDS011;4483;48.622;9.230;2023-04-25T07:26:19;3.40;;;3.10;;
8893;SDS011;4483;48.622;9.230;2023-04-25T07:28:45;2.60;;;2.20;;
8893;SDS011;4483;48.622;9.230;2023-04-25T07:31:15;2.20;;;2.10;;
8893;SDS011;4483;48.622;9.230;2023-04-25T07:33:43;3.13;;;2.57;;
8893;SDS011;4483;48.622;9.230;2023-04-25T07:36:09;1.90;;;1.80;;
8893;SDS011;4483;48.622;9.230;2023-04-25T07:38:37;3.57;;;2.40;;
8893;SDS011;4483;48.622;9.230;2023-04-25T07:41:04;3.57;;;2.57;;
8893;SDS011;4483;48.622;9.230;2023-04-25T07:43:31;3.27;;;2.00;;
8893;SDS011;4483;48.622;9.230;2023-04-25T07:45:57;2.50;;;2.30;;
8893;SDS011;4483;48.622;9.230;2023-04-25T07:48:24;2.10;;;2.00;;
8893;SDS011;4483;48.622;9.230;2023-04-25T07:50:51;2.97;;;2.30;;
8893;SDS011;4483;48.622;9.230;2023-04-25T07:53:17;6.00;;;2.90;;
8893;SDS011;4483;48.622;9.230;2023-04-25T07:55:45;3.43;;;2.87;;
8893;SDS011;4483;48.622;9.230;2023-04-25T07:58:12;2.83;;;2.60;;
8893;SDS011;4483;48.622;9.230;2023-04-25T08:00:40;3.00;;;2.70;;
8893;SDS011;4483;48.622;9.230;2023-04-25T08:03:08;3.00;;;2.40;;
8893;SDS011;4483;48.622;9.230;2023-04-25T08:05:35;5.27;;;2.87;;
8893;SDS011;4483;48.622;9.230;2023-04-25T08:08:02;3.57;;;2.10;;
8893;SDS011;4483;48.622;9.230;2023-04-25T08:10:31;4.63;;;2.70;;
8893;SDS011;4483;48.622;9.230;2023-04-25T08:12:59;2.63;;;2.43;;
8893;SDS011;4483;48.622;9.230;2023-04-25T08:15:26;5.70;;;2.90;;
8893;SDS011;4483;48.622;9.230;2023-04-25T08:17:52;2.53;;;2.30;;
8893;SDS011;4483;48.622;9.230;2023-04-25T08:20:19;4.23;;;2.40;;
8893;SDS011;4483;48.622;9.230;2023-04-25T08:22:46;4.00;;;2.70;;
8893;SDS011;4483;48.622;9.230;2023-04-25T08:25:13;5.37;;;2.43;;
8893;SDS011;4483;48.622;9.230;2023-04-25T08:27:40;2.73;;;2.53;;
8893;SDS011;4483;48.622;9.230;2023-04-25T08:30:08;2.73;;;2.43;;
8893;SDS011;4483;48.622;9.230;2023-04-25T08:32:35;2.87;;;2.27;;
8893;SDS011;4483;48.622;9.230;2023-04-25T08:35:03;2.73;;;2.47;;
8893;SDS011;4483;48.622;9.230;2023-04-25T08:37:30;2.10;;;2.00;;
8893;SDS011;4483;48.622;9.230;2023-04-25T08:39:57;4.43;;;2.50;;
8893;SDS011;4483;48.622;9.230;2023-04-25T08:42:24;2.70;;;2.50;;
8893;SDS011;4483;48.622;9.230;2023-04-25T08:44:53;2.30;;;2.10;;
8893;SDS011;4483;48.622;9.230;2023-04-25T08:47:22;2.10;;;2.00;;
8893;SDS011;4483;48.622;9.230;2023-04-25T08:49:49;4.73;;;2.10;;
8893;SDS011;4483;48.622;9.230;2023-04-25T08:52:20;2.63;;;2.37;;
8893;SDS011;4483;48.622;9.230;2023-04-25T08:54:48;2.60;;;2.40;;
8893;SDS011;4483;48.622;9.230;2023-04-25T08:57:17;2.77;;;2.43;;
8893;SDS011;4483;48.622;9.230;2023-04-25T08:59:44;2.50;;;2.30;;
8893;SDS011;4483;48.622;9.230;2023-04-25T09:02:13;2.80;;;2.20;;
8893;SDS011;4483;48.622;9.230;2023-04-25T09:04:43;3.40;;;2.30;;
8893;SDS011;4483;48.622;9.230;2023-04-25T09:07:10;2.93;;;2.73;;
8893;SDS011;4483;48.622;9.230;2023-04-25T09:09:37;3.50;;;2.40;;
8893;SDS011;4483;48.622;9.230;2023-04-25T09:12:04;2.67;;;2.43;;
8893;SDS011;4483;48.622;9.230;2023-04-25T09:14:31;4.83;;;2.60;;
8893;SDS011;4483;48.622;9.230;2023-04-25T09:16:59;3.53;;;2.43;;
8893;SDS011;4483;48.622;9.230;2023-04-25T09:19:28;2.63;;;2.10;;
8893;SDS011;4483;48.622;9.230;2023-04-25T09:21:58;2.57;;;2.40;;
8893;SDS011;4483;48.622;9.230;2023-04-25T09:24:30;3.97;;;2.57;;
8893;SDS011;4483;48.622;9.230;2023-04-25T09:26:57;2.67;;;2.47;;
8893;SDS011;4483;48.622;9.230;2023-04-25T09:29:28;3.00;;;2.53;;
8893;SDS011;4483;48.622;9.230;2023-04-25T09:32:10;2.43;;;2.23;;
8893;SDS011;4483;48.622;9.230;2023-04-25T09:34:38;2.80;;;2.53;;
8893;SDS011;4483;48.622;9.230;2023-04-25T09:37:08;3.43;;;2.60;;
8893;SDS011;4483;48.622;9.230;2023-04-25T09:39:35;2.90;;;2.63;;
8893;SDS011;4483;48.622;9.230;2023-04-25T09:42:03;2.53;;;2.33;;
8893;SDS011;4483;48.622;9.230;2023-04-25T09:44:30;2.30;;;2.20;;
8893;SDS011;4483;48.622;9.230;2023-04-25T09:46:56;5.00;;;2.50;;
8893;SDS011;4483;48.622;9.230;2023-04-25T09:49:24;2.33;;;2.20;;
8893;SDS011;4483;48.622;9.230;2023-04-25T09:51:54;2.93;;;2.60;;
8893;SDS011;4483;48.622;9.230;2023-04-25T09:54:23;3.43;;;2.40;;
8893;SDS011;4483;48.622;9.230;2023-04-25T09:56:51;2.60;;;2.40;;
8893;SDS011;4483;48.622;9.230;2023-04-25T09:59:19;2.63;;;2.37;;
8893;SDS011;4483;48.622;9.230;2023-04-25T10:01:48;2.43;;;2.23;;
8893;SDS011;4483;48.622;9.230;2023-04-25T10:04:16;2.40;;;2.30;;
8893;SDS011;4483;48.622;9.230;2023-04-25T10:06:47;1.97;;;1.87;;
8893;SDS011;4483;48.622;9.230;2023-04-25T10:09:15;2.70;;;2.50;;
8893;SDS011;4483;48.622;9.230;2023-04-25T10:11:44;2.20;;;1.77;;
8893;SDS011;4483;48.622;9.230;2023-04-25T10:14:12;2.63;;;2.20;;
8893;SDS011;4483;48.622;9.230;2023-04-25T10:16:40;2.07;;;1.97;;
8893;SDS011;4483;48.622;9.230;2023-04-25T10:19:07;1.80;;;1.70;;
8893;SDS011;4483;48.622;9.230;2023-04-25T10:21:35;2.40;;;2.20;;
8893;SDS011;4483;48.622;9.230;2023-04-25T10:24:08;4.90;;;2.10;;
8893;SDS011;4483;48.622;9.230;2023-04-25T10:26:35;1.53;;;1.43;;
8893;SDS011;4483;48.622;9.230;2023-04-25T10:29:04;1.80;;;1.67;;
8893;SDS011;4483;48.622;9.230;2023-04-25T10:31:30;1.60;;;1.50;;
8893;SDS011;4483;48.622;9.230;2023-04-25T10:33:58;1.37;;;1.20;;
8893;SDS011;4483;48.622;9.230;2023-04-25T10:36:26;1.17;;;1.17;;
8893;SDS011;4483;48.622;9.230;2023-04-25T10:38:58;1.00;;;1.00;;
8893;SDS011;4483;48.622;9.230;2023-04-25T10:41:31;1.00;;;1.00;;
8893;SDS011;4483;48.622;9.230;2023-04-25T10:44:13;1.20;;;1.10;;
8893;SDS011;4483;48.622;9.230;2023-04-25T10:46:40;0.97;;;0.97;;
8893;SDS011;4483;48.622;9.230;2023-04-25T10:49:08;0.83;;;0.83;;
8893;SDS011;4483;48.622;9.230;2023-04-25T10:51:36;0.80;;;0.80;;
8893;SDS011;4483;48.622;9.230;2023-04-25T10:54:04;0.73;;;0.73;;
8893;SDS011;4483;48.622;9.230;2023-04-25T10:56:32;0.60;;;0.60;;
8893;SDS011;4483;48.622;9.230;2023-04-25T10:59:07;2.90;;;0.70;;
8893;SDS011;4483;48.622;9.230;2023-04-25T11:01:37;0.90;;;0.90;;
8893;SDS011;4483;48.622;9.230;2023-04-25T11:04:05;1.27;;;0.83;;
8893;SDS011;4483;48.622;9.230;2023-04-25T11:06:36;0.67;;;0.67;;
8893;SDS011;4483;48.622;9.230;2023-04-25T11:09:11;1.07;;;0.70;;
8893;SDS011;4483;48.622;9.230;2023-04-25T11:11:39;0.80;;;0.80;;
8893;SDS011;4483;48.622;9.230;2023-04-25T11:14:05;0.50;;;0.50;;
8893;SDS011;4483;48.622;9.230;2023-04-25T11:16:32;0.53;;;0.53;;
8893;SDS011;4483;48.622;9.230;2023-04-25T11:19:00;0.47;;;0.47;;
8893;SDS011;4483;48.622;9.230;2023-04-25T11:21:27;0.50;;;0.50;;
8893;SDS011;4483;48.622;9.230;2023-04-25T11:23:53;0.90;;;0.60;;
8893;SDS011;4483;48.622;9.230;2023-04-25T11:26:23;0.40;;;0.40;;
8893;SDS011;4483;48.622;9.230;2023-04-25T11:28:50;0.60;;;0.60;;
8893;SDS011;4483;48.622;9.230;2023-04-25T11:31:19;0.60;;;0.43;;
8893;SDS011;4483;48.622;9.230;2023-04-25T11:33:46;0.40;;;0.40;;
8893;SDS011;4483;48.622;9.230;2023-04-25T11:36:14;0.30;;;0.30;;
8893;SDS011;4483;48.622;9.230;2023-04-25T11:38:41;0.40;;;0.40;;
8893;SDS011;4483;48.622;9.230;2023-04-25T11:41:08;0.83;;;0.50;;
8893;SDS011;4483;48.622;9.230;2023-04-25T11:43:34;0.57;;;0.47;;
8893;SDS011;4483;48.622;9.230;2023-04-25T11:46:01;0.50;;;0.50;;
8893;SDS011;4483;48.622;9.230;2023-04-25T11:48:36;1.33;;;0.53;;
8893;SDS011;4483;48.622;9.230;2023-04-25T11:51:03;0.47;;;0.47;;
8893;SDS011;4483;48.622;9.230;2023-04-25T11:53:32;0.50;;;0.50;;
8893;SDS011;4483;48.622;9.230;2023-04-25T11:55:58;0.40;;;0.40;;
8893;SDS011;4483;48.622;9.230;2023-04-25T11:58:25;0.50;;;0.50;;
8893;SDS011;4483;48.622;9.230;2023-04-25T12:00:52;0.93;;;0.50;;
8893;SDS011;4483;48.622;9.230;2023-04-25T12:03:19;0.40;;;0.40;;
8893;SDS011;4483;48.622;9.230;2023-04-25T12:05:48;0.60;;;0.60;;
8893;SDS011;4483;48.622;9.230;2023-04-25T12:08:16;0.60;;;0.60;;
8893;SDS011;4483;48.622;9.230;2023-04-25T12:10:45;0.60;;;0.60;;
8893;SDS011;4483;48.622;9.230;2023-04-25T12:13:22;0.80;;;0.70;;
8893;SDS011;4483;48.622;9.230;2023-04-25T12:15:50;1.00;;;1.00;;
8893;SDS011;4483;48.622;9.230;2023-04-25T12:18:19;1.90;;;1.10;;
8893;SDS011;4483;48.622;9.230;2023-04-25T12:20:47;3.67;;;1.10;;
8893;SDS011;4483;48.622;9.230;2023-04-25T12:23:13;1.80;;;1.40;;
8893;SDS011;4483;48.622;9.230;2023-04-25T12:25:40;1.53;;;1.43;;
8893;SDS011;4483;48.622;9.230;2023-04-25T12:28:11;2.70;;;1.43;;
8893;SDS011;4483;48.622;9.230;2023-04-25T12:30:52;1.33;;;1.33;;
8893;SDS011;4483;48.622;9.230;2023-04-25T12:33:22;2.37;;;2.07;;
8893;SDS011;4483;48.622;9.230;2023-04-25T12:35:49;2.43;;;1.70;;
8893;SDS011;4483;48.622;9.230;2023-04-25T12:38:23;1.83;;;1.33;;
8893;SDS011;4483;48.622;9.230;2023-04-25T12:40:50;1.70;;;1.60;;
8893;SDS011;4483;48.622;9.230;2023-04-25T12:43:19;1.17;;;1.17;;
8893;SDS011;4483;48.622;9.230;2023-04-25T12:45:47;3.47;;;1.60;;
8893;SDS011;4483;48.622;9.230;2023-04-25T12:48:15;1.13;;;1.13;;
8893;SDS011;4483;48.622;9.230;2023-04-25T12:50:41;1.43;;;1.40;;
8893;SDS011;4483;48.622;9.230;2023-04-25T12:53:08;1.70;;;1.60;;
8893;SDS011;4483;48.622;9.230;2023-04-25T12:55:35;1.40;;;1.30;;
8893;SDS011;4483;48.622;9.230;2023-04-25T12:58:01;1.57;;;1.57;;
8893;SDS011;4483;48.622;9.230;2023-04-25T13:00:30;3.53;;;1.90;;
8893;SDS011;4483;48.622;9.230;2023-04-25T13:02:57;1.93;;;1.80;;
8893;SDS011;4483;48.622;9.230;2023-04-25T13:05:24;2.00;;;1.90;;
8893;SDS011;4483;48.622;9.230;2023-04-25T13:07:51;2.27;;;2.17;;
8893;SDS011;4483;48.622;9.230;2023-04-25T13:10:17;1.93;;;1.83;;
8893;SDS011;4483;48.622;9.230;2023-04-25T13:12:44;2.37;;;2.00;;
8893;SDS011;4483;48.622;9.230;2023-04-25T13:15:11;2.00;;;1.90;;
8893;SDS011;4483;48.622;9.230;2023-04-25T13:17:41;2.93;;;1.90;;
8893;SDS011;4483;48.622;9.230;2023-04-25T13:20:08;2.17;;;2.00;;
8893;SDS011;4483;48.622;9.230;2023-04-25T13:22:36;1.93;;;1.83;;
8893;SDS011;4483;48.622;9.230;2023-04-25T13:25:04;2.63;;;2.23;;
8893;SDS011;4483;48.622;9.230;2023-04-25T13:27:31;2.37;;;2.10;;
8893;SDS011;4483;48.622;9.230;2023-04-25T13:29:59;2.20;;;2.00;;
8893;SDS011;4483;48.622;9.230;2023-04-25T13:32:26;1.90;;;1.80;;
8893;SDS011;4483;48.622;9.230;2023-04-25T13:34:54;2.20;;;2.10;;
8893;SDS011;4483;48.622;9.230;2023-04-25T13:37:21;1.80;;;1.70;;
8893;SDS011;4483;48.622;9.230;2023-04-25T13:39:49;1.97;;;1.87;;
8893;SDS011;4483;48.622;9.230;2023-04-25T13:42:16;1.80;;;1.70;;
8893;SDS011;4483;48.622;9.230;2023-04-25T13:44:42;1.80;;;1.70;;
8893;SDS011;4483;48.622;9.230;2023-04-25T13:47:09;1.90;;;1.73;;
8893;SDS011;4483;48.622;9.230;2023-04-25T13:49:36;1.90;;;1.80;;
8893;SDS011;4483;48.622;9.230;2023-04-25T13:52:04;1.70;;;1.60;;
8893;SDS011;4483;48.622;9.230;2023-04-25T13:54:30;1.80;;;1.70;;
8893;SDS011;4483;48.622;9.230;2023-04-25T13:56:57;1.70;;;1.53;;
8893;SDS011;4483;48.622;9.230;2023-04-25T13:59:24;1.67;;;1.57;;
8893;SDS011;4483;48.622;9.230;2023-04-25T14:01:51;1.80;;;1.70;;
8893;SDS011;4483;48.622;9.230;2023-04-25T14:04:18;1.60;;;1.60;;
8893;SDS011;4483;48.622;9.230;2023-04-25T14:06:44;2.60;;;1.70;;
8893;SDS011;4483;48.622;9.230;2023-04-25T14:09:13;1.80;;;1.67;;
8893;SDS011;4483;48.622;9.230;2023-04-25T14:11:40;2.00;;;1.90;;
8893;SDS011;4483;48.622;9.230;2023-04-25T14:14:07;1.90;;;1.80;;
8893;SDS011;4483;48.622;9.230;2023-04-25T14:16:33;2.10;;;1.90;;
8893;SDS011;4483;48.622;9.230;2023-04-25T14:19:00;2.10;;;2.00;;
8893;SDS011;4483;48.622;9.230;2023-04-25T14:21:28;2.37;;;2.17;;
8893;SDS011;4483;48.622;9.230;2023-04-25T14:23:56;2.53;;;2.37;;
8893;SDS011;4483;48.622;9.230;2023-04-25T14:26:24;4.43;;;2.33;;
8893;SDS011;4483;48.622;9.230;2023-04-25T14:28:51;2.30;;;2.20;;
8893;SDS011;4483;48.622;9.230;2023-04-25T14:31:17;2.70;;;2.50;;
8893;SDS011;4483;48.622;9.230;2023-04-25T14:33:44;3.53;;;2.57;;
8893;SDS011;4483;48.622;9.230;2023-04-25T14:36:11;2.80;;;2.60;;
8893;SDS011;4483;48.622;9.230;2023-04-25T14:38:39;3.17;;;2.87;;
8893;SDS011;4483;48.622;9.230;2023-04-25T14:41:05;3.20;;;3.00;;
8893;SDS011;4483;48.622;9.230;2023-04-25T14:43:33;5.87;;;2.90;;
8893;SDS011;4483;48.622;9.230;2023-04-25T14:46:01;3.20;;;2.93;;
8893;SDS011;4483;48.622;9.230;2023-04-25T14:48:28;2.93;;;2.73;;
8893;SDS011;4483;48.622;9.230;2023-04-25T14:50:55;3.00;;;2.80;;
8893;SDS011;4483;48.622;9.230;2023-04-25T14:53:22;3.10;;;2.90;;
8893;SDS011;4483;48.622;9.230;2023-04-25T14:55:49;3.27;;;2.90;;
8893;SDS011;4483;48.622;9.230;2023-04-25T14:58:16;3.93;;;3.30;;
8893;SDS011;4483;48.622;9.230;2023-04-25T15:00:44;3.27;;;3.07;;
8893;SDS011;4483;48.622;9.230;2023-04-25T15:03:11;3.67;;;2.97;;
8893;SDS011;4483;48.622;9.230;2023-04-25T15:05:37;3.33;;;3.00;;
8893;SDS011;4483;48.622;9.230;2023-04-25T15:08:05;4.93;;;3.00;;
8893;SDS011;4483;48.622;9.230;2023-04-25T15:10:32;2.97;;;2.53;;
8893;SDS011;4483;48.622;9.230;2023-04-25T15:12:58;3.00;;;2.80;;
8893;SDS011;4483;48.622;9.230;2023-04-25T15:15:25;2.77;;;2.57;;
8893;SDS011;4483;48.622;9.230;2023-04-25T15:17:53;3.10;;;2.90;;